Аэропорт
Тбилиси (UGTB)

 UGTB / TBS
ЗЦ Ростов-на-Дону
Тбилиси* (UGGG)
Тбилиси (UGGG)
 41.66920, 44.95470  / 1624 ft

 UGTB 161600Z 31026G36KT CAVOK 07/M00 Q1016 NOSIG
 UGTB 160500Z 1606/1706 32016KT 9999 SCT065 TX10/1612Z TN04/1702Z TEMPO 1608/1615 32026G36KT BECMG 1616/1618 32026KT TEMPO 1700/1706 32032G42KT
UGTB_AIP
Название сценария Тип сценария Flight Simulator 9 Flight Simulator X Prepar3D v2 Prepar3D v3 Prepar3D v4 xPlane
Tbilisi Freeware бесплатный
Tbilisi Freeware бесплатный

Аэропорт Тбилиси имени Шота Руставели

IATA: TBS, ICAO: UGTB

 

Международный аэропорт Тбилиси имени Шота Руставели — главный аэропорт Грузии, расположен недалеко от столицы Тбилиси с восточной стороны. В феврале 2007 года была завершена реконструкция аэропорта. Были построены новый международный терминал, паркинг, усовершенствованы перрон, рулёжные дорожки и взлётно-посадочные полосы, а также приобретено погрузочно-разгрузочное оборудование. Пропускная способность нового здания терминала — 2,8 млн пассажиров в год.

Взлетно-посадочные полосы (ВПП)
Номер Длина Поверхность ILS
13R 3000 м бетон CATI 110.3
31L CATI 108.9

 

Аэропорт грузинской столицы является крупнейшим в стране и принимает все типы воздушных судов кроме А380.

Фототеррейн Тбилиси: http://ftxdes.blogspot.ru/2016/05/project-open-scenery-tbilisi-georgia.html



2019 © VATRUS division (Privacy Policy)